Aviation Digital Data Service (ADDS)

Output produced by METARs form (1145 UTC 30 September 2016)
found at http://aviationweather.gov/adds/metars/
 
KSSI 301120Z 3012/0112 26006KT P6SM FEW050 
     FM301600 21011KT P6SM FEW050 
     FM302200 VRB05KT P6SM SKC